createdAt,value
2018-10-01T00:01:54.795Z,59.15
2018-10-01T00:04:23.363Z,60.03
2018-10-01T00:06:51.959Z,59.36
2018-10-01T00:09:20.866Z,60.62
2018-10-01T00:11:49.553Z,62.05
2018-10-01T00:14:18.094Z,60.45
2018-10-01T00:16:47.428Z,59.90
2018-10-01T00:19:21.196Z,60.21
2018-10-01T00:21:55.028Z,60.34
2018-10-01T00:24:24.114Z,63.30
2018-10-01T00:26:52.791Z,62.86
2018-10-01T00:29:22.091Z,60.25
2018-10-01T00:31:51.419Z,58.39
2018-10-01T00:34:20.751Z,58.91
2018-10-01T00:36:50.594Z,59.13
2018-10-01T00:39:20.186Z,59.87
2018-10-01T00:41:48.915Z,59.77
2018-10-01T00:44:17.560Z,59.40
2018-10-01T00:46:46.095Z,59.84
2018-10-01T00:49:15.726Z,59.29
2018-10-01T00:51:44.435Z,61.31
2018-10-01T00:54:12.905Z,59.69
2018-10-01T00:56:41.576Z,58.79
2018-10-01T00:59:10.439Z,58.82
2018-10-01T01:01:39.660Z,60.04
2018-10-01T01:04:08.400Z,60.22
2018-10-01T01:06:37.429Z,62.12
2018-10-01T01:09:07.964Z,65.59
2018-10-01T01:11:37.591Z,61.75
2018-10-01T01:14:06.125Z,58.79
2018-10-01T01:16:34.718Z,59.88
2018-10-01T01:19:03.241Z,59.12
2018-10-01T01:21:32.589Z,60.01
2018-10-01T01:24:01.289Z,61.54
2018-10-01T01:26:29.839Z,61.30
2018-10-01T01:28:58.501Z,60.42
2018-10-01T01:31:27.218Z,60.79
2018-10-01T01:33:57.064Z,61.52
2018-10-01T01:36:25.674Z,61.41
2018-10-01T01:38:54.500Z,62.05
2018-10-01T01:41:23.134Z,62.66
2018-10-01T01:43:51.913Z,62.39
2018-10-01T01:46:20.650Z,61.80
2018-10-01T01:48:49.230Z,66.53
2018-10-01T01:51:17.989Z,61.20
2018-10-01T01:53:46.590Z,60.33
2018-10-01T01:56:15.894Z,61.26
2018-10-01T01:58:44.445Z,61.50
2018-10-01T02:01:12.935Z,62.05
2018-10-01T02:03:41.648Z,62.04
2018-10-01T02:06:10.223Z,62.13
2018-10-01T02:08:39.028Z,62.82
2018-10-01T02:11:07.760Z,62.48
2018-10-01T02:13:36.423Z,62.08
2018-10-01T02:16:04.948Z,61.95
2018-10-01T02:18:33.565Z,61.67
2018-10-01T02:21:02.863Z,62.25
2018-10-01T02:23:31.478Z,62.73
2018-10-01T02:26:00.144Z,61.74
2018-10-01T02:28:28.858Z,61.58
2018-10-01T02:30:57.506Z,62.44
2018-10-01T02:33:26.288Z,61.17
2018-10-01T02:35:55.713Z,60.02
2018-10-01T02:38:24.428Z,60.75
2018-10-01T02:40:53.144Z,60.34
2018-10-01T02:43:21.728Z,60.96
2018-10-01T02:45:50.375Z,60.19
2018-10-01T02:48:19.009Z,60.48
2018-10-01T02:50:48.218Z,60.32
2018-10-01T02:53:22.803Z,60.26
2018-10-01T02:55:51.448Z,60.52
2018-10-01T02:58:20.710Z,60.18
2018-10-01T03:00:49.540Z,60.54
2018-10-01T03:03:18.068Z,59.83
2018-10-01T03:05:47.313Z,60.25
2018-10-01T03:08:16.253Z,59.93
2018-10-01T03:10:44.935Z,59.70
2018-10-01T03:13:14.404Z,61.96
2018-10-01T03:15:43.123Z,59.19
2018-10-01T03:18:11.679Z,58.71
2018-10-01T03:20:40.496Z,58.86
2018-10-01T03:23:09.183Z,60.55
2018-10-01T03:25:38.162Z,59.35
2018-10-01T03:28:07.683Z,60.65
2018-10-01T03:30:36.985Z,60.77
2018-10-01T03:33:05.549Z,60.51
2018-10-01T03:35:34.881Z,60.65
2018-10-01T03:38:03.564Z,60.81
2018-10-01T03:40:32.256Z,60.63
2018-10-01T03:43:01.244Z,60.85
2018-10-01T03:45:30.483Z,61.21
2018-10-01T03:47:59.069Z,60.70
2018-10-01T03:50:27.774Z,60.88
2018-10-01T03:52:56.323Z,58.35
2018-10-01T03:55:25.005Z,59.23
2018-10-01T03:57:53.758Z,60.04
2018-10-01T04:00:22.569Z,59.10
2018-10-01T04:02:51.165Z,58.72
2018-10-01T04:05:19.710Z,59.43
2018-10-01T04:07:48.260Z,58.91
2018-10-01T04:10:16.918Z,60.98
2018-10-01T04:12:46.249Z,60.04
2018-10-01T04:15:16.248Z,60.27
2018-10-01T04:17:44.817Z,59.30
2018-10-01T04:20:13.428Z,59.84
2018-10-01T04:22:42.025Z,60.22
2018-10-01T04:25:11.830Z,60.62
2018-10-01T04:27:40.405Z,61.09
2018-10-01T04:30:11.017Z,60.66
2018-10-01T04:32:39.667Z,60.18
2018-10-01T04:35:08.755Z,59.29
2018-10-01T04:37:38.678Z,58.86
2018-10-01T04:40:07.473Z,59.36
2018-10-01T04:42:36.033Z,59.51
2018-10-01T04:45:04.871Z,60.99
2018-10-01T04:47:33.519Z,60.01
2018-10-01T04:50:02.129Z,60.30
2018-10-01T04:52:31.464Z,61.08
2018-10-01T04:55:00.026Z,60.20
2018-10-01T04:57:29.252Z,60.21
2018-10-01T04:59:57.930Z,60.76
2018-10-01T05:02:26.524Z,60.53
2018-10-01T05:04:55.175Z,60.81
2018-10-01T05:07:23.897Z,61.94
2018-10-01T05:09:53.089Z,62.85
2018-10-01T05:12:21.685Z,60.99
2018-10-01T05:14:51.202Z,61.03
2018-10-01T05:17:20.589Z,61.27
2018-10-01T05:19:49.140Z,61.57
2018-10-01T05:22:18.893Z,62.17
2018-10-01T05:24:47.459Z,61.91
2018-10-01T05:27:16.867Z,60.71
2018-10-01T05:29:45.315Z,60.83
2018-10-01T05:32:14.199Z,61.77
2018-10-01T05:34:42.786Z,62.05
2018-10-01T05:37:11.363Z,62.26
2018-10-01T05:39:39.929Z,61.52
2018-10-01T05:42:08.585Z,61.79
2018-10-01T05:44:37.740Z,63.25
2018-10-01T05:47:06.450Z,66.61
2018-10-01T05:49:35.254Z,62.32
2018-10-01T05:52:04.141Z,62.66
2018-10-01T05:54:32.776Z,62.93
2018-10-01T05:57:01.475Z,60.99
2018-10-01T05:59:30.175Z,62.21
2018-10-01T06:01:58.975Z,62.65
2018-10-01T06:04:27.540Z,62.55
2018-10-01T06:06:56.604Z,62.61
2018-10-01T06:09:25.262Z,63.06
2018-10-01T06:11:53.971Z,64.47
2018-10-01T06:14:23.568Z,63.84
2018-10-01T06:16:52.938Z,63.16
2018-10-01T06:19:21.563Z,63.68
2018-10-01T06:21:50.168Z,63.82
2018-10-01T06:24:18.752Z,64.90
2018-10-01T06:26:47.892Z,63.61
2018-10-01T06:29:16.783Z,64.24
2018-10-01T06:31:45.919Z,63.48
2018-10-01T06:34:14.534Z,63.36
2018-10-01T06:36:43.190Z,63.47
2018-10-01T06:39:12.625Z,63.29
2018-10-01T06:41:41.299Z,64.78
2018-10-01T06:44:09.998Z,65.16
2018-10-01T06:46:38.548Z,64.64
2018-10-01T06:49:07.226Z,63.67
2018-10-01T06:51:35.859Z,64.73
2018-10-01T06:54:04.972Z,64.68
2018-10-01T06:56:33.606Z,64.70
2018-10-01T06:59:02.298Z,65.39
2018-10-01T07:01:32.486Z,66.63
2018-10-01T07:04:01.085Z,64.60
2018-10-01T07:06:29.739Z,62.07
2018-10-01T07:08:58.357Z,63.08
2018-10-01T07:11:27.069Z,61.48
2018-10-01T07:13:56.419Z,60.29
2018-10-01T07:16:25.237Z,61.88
2018-10-01T07:18:54.093Z,61.46
2018-10-01T07:21:22.877Z,62.03
2018-10-01T07:23:52.368Z,61.52
2018-10-01T07:26:21.623Z,60.87
2018-10-01T07:28:50.997Z,60.57
2018-10-01T07:31:19.748Z,60.11
2018-10-01T07:33:49.006Z,59.42
2018-10-01T07:36:17.794Z,58.80
2018-10-01T07:38:46.992Z,59.08
2018-10-01T07:41:15.718Z,58.97
2018-10-01T07:43:44.373Z,58.11
2018-10-01T07:46:14.023Z,59.39
2018-10-01T07:48:42.520Z,56.88
2018-10-01T07:51:11.864Z,56.21
2018-10-01T07:53:40.524Z,56.37
2018-10-01T07:56:10.004Z,56.63
2018-10-01T07:58:38.677Z,56.66
2018-10-01T08:01:07.286Z,57.02
2018-10-01T08:03:35.832Z,57.04
2018-10-01T08:06:04.412Z,57.32
2018-10-01T08:08:33.118Z,56.88
2018-10-01T08:11:01.669Z,57.54
2018-10-01T08:13:30.808Z,56.21
2018-10-01T08:15:59.445Z,55.74
2018-10-01T08:18:28.015Z,55.77
2018-10-01T08:20:56.843Z,56.15
2018-10-01T08:23:25.619Z,55.55
2018-10-01T08:25:54.264Z,55.53
2018-10-01T08:28:23.654Z,58.20
2018-10-01T08:30:53.016Z,56.14
2018-10-01T08:33:21.696Z,56.02
2018-10-01T08:35:50.367Z,55.43
2018-10-01T08:38:20.012Z,53.85
2018-10-01T08:40:48.482Z,53.67
2018-10-01T08:43:18.337Z,52.70
2018-10-01T08:45:47.153Z,52.04
2018-10-01T08:48:16.985Z,52.50
2018-10-01T08:50:57.044Z,53.82
2018-10-01T08:53:34.444Z,53.22
2018-10-01T08:56:03.119Z,52.69
2018-10-01T08:58:31.616Z,52.05
2018-10-01T09:01:00.202Z,51.61
2018-10-01T09:03:28.774Z,51.96
2018-10-01T09:05:57.407Z,52.64
2018-10-01T09:08:26.299Z,52.78
2018-10-01T09:10:55.111Z,53.08
2018-10-01T09:13:23.775Z,54.09
2018-10-01T09:15:52.472Z,54.74
2018-10-01T09:18:22.199Z,55.86
2018-10-01T09:20:51.479Z,54.07
2018-10-01T09:23:20.062Z,54.68
2018-10-01T09:25:48.723Z,54.83
2018-10-01T09:28:17.169Z,55.70
2018-10-01T09:30:45.898Z,55.70
2018-10-01T09:33:14.487Z,55.09
2018-10-01T09:35:44.030Z,53.93
2018-10-01T09:38:12.724Z,54.78
2018-10-01T09:40:41.360Z,56.50
2018-10-01T09:43:09.992Z,55.76
2018-10-01T09:45:38.728Z,56.06
2018-10-01T09:48:07.401Z,57.03
2018-10-01T09:50:35.957Z,58.42
2018-10-01T09:53:04.482Z,57.93
2018-10-01T09:55:34.088Z,56.89
2018-10-01T09:58:02.735Z,55.12
2018-10-01T10:00:40.468Z,54.53
2018-10-01T10:03:09.837Z,51.87
2018-10-01T10:05:39.325Z,52.58
2018-10-01T10:08:08.073Z,51.76
2018-10-01T10:10:36.886Z,52.10
2018-10-01T10:13:06.044Z,51.15
2018-10-01T10:15:35.254Z,49.23
2018-10-01T10:18:04.199Z,48.81
2018-10-01T10:20:33.363Z,49.09
2018-10-01T10:23:01.977Z,48.50
2018-10-01T10:25:31.268Z,49.98
2018-10-01T10:27:59.922Z,49.80
2018-10-01T10:30:28.614Z,48.59
2018-10-01T10:32:57.360Z,49.25
2018-10-01T10:35:26.124Z,50.65
2018-10-01T10:37:54.954Z,49.55
2018-10-01T10:40:23.562Z,49.37
2018-10-01T10:42:52.298Z,47.19
2018-10-01T10:45:21.479Z,47.05
2018-10-01T10:47:50.016Z,47.66
2018-10-01T10:50:19.504Z,47.47
2018-10-01T10:52:48.093Z,49.00
2018-10-01T10:55:17.409Z,48.48
2018-10-01T10:57:45.993Z,47.17
2018-10-01T11:00:14.819Z,49.05
2018-10-01T11:02:43.379Z,48.25
2018-10-01T11:05:12.038Z,49.31
2018-10-01T11:07:40.752Z,49.90
2018-10-01T11:10:09.303Z,51.49
2018-10-01T11:12:39.169Z,53.04
2018-10-01T11:15:08.492Z,56.55
2018-10-01T11:17:36.928Z,58.12
2018-10-01T11:20:05.908Z,59.25
2018-10-01T11:22:34.739Z,60.42
2018-10-01T11:25:03.458Z,59.71
2018-10-01T11:27:32.211Z,59.34
2018-10-01T11:30:00.770Z,59.64
2018-10-01T11:32:29.577Z,58.90
2018-10-01T11:34:58.397Z,60.04
2018-10-01T11:37:26.987Z,59.21
2018-10-01T11:39:56.839Z,60.13
2018-10-01T11:42:25.498Z,60.50
2018-10-01T11:44:54.198Z,60.15
2018-10-01T11:47:23.017Z,59.79
2018-10-01T11:49:51.759Z,58.59
2018-10-01T11:52:20.342Z,58.97
2018-10-01T11:54:48.896Z,58.14
2018-10-01T11:57:17.804Z,58.64
2018-10-01T11:59:46.917Z,59.23
2018-10-01T12:02:15.589Z,59.72
2018-10-01T12:04:44.204Z,60.94
2018-10-01T12:07:13.615Z,60.02
2018-10-01T12:09:42.296Z,61.13
2018-10-01T12:12:10.848Z,61.09
2018-10-01T12:14:39.503Z,60.78
2018-10-01T12:17:08.173Z,61.34
2018-10-01T12:19:37.595Z,60.34
2018-10-01T12:22:06.322Z,60.07
2018-10-01T12:24:34.929Z,60.01
2018-10-01T12:27:04.259Z,60.16
2018-10-01T12:29:32.781Z,60.23
2018-10-01T12:32:01.507Z,59.72
2018-10-01T12:34:30.173Z,59.32
2018-10-01T12:36:58.718Z,58.83
2018-10-01T12:39:27.497Z,57.41
2018-10-01T12:41:56.652Z,57.54
2018-10-01T12:44:25.392Z,57.37
2018-10-01T12:46:53.942Z,63.57
2018-10-01T12:49:23.683Z,58.30
2018-10-01T12:51:53.027Z,57.02
2018-10-01T12:54:21.819Z,57.15
2018-10-01T12:56:50.632Z,57.98
2018-10-01T12:59:19.313Z,58.45
2018-10-01T13:01:48.482Z,56.35
2018-10-01T13:04:17.831Z,56.14
2018-10-01T13:06:47.103Z,54.01
2018-10-01T13:09:16.343Z,53.44
2018-10-01T13:11:45.078Z,52.53
2018-10-01T13:14:13.629Z,52.61
2018-10-01T13:16:42.437Z,53.15
2018-10-01T13:19:12.141Z,57.00
2018-10-01T13:21:41.388Z,57.05
2018-10-01T13:24:10.009Z,57.88
2018-10-01T13:26:38.966Z,57.63
2018-10-01T13:29:07.501Z,59.10
2018-10-01T13:31:36.250Z,55.92
2018-10-01T13:34:04.768Z,55.84
2018-10-01T13:36:33.432Z,55.28
2018-10-01T13:39:01.860Z,55.39
2018-10-01T13:41:30.381Z,55.49
2018-10-01T13:43:59.016Z,55.58
2018-10-01T13:46:28.319Z,56.86
2018-10-01T13:48:56.958Z,56.46
2018-10-01T13:51:25.637Z,56.96
2018-10-01T13:53:54.309Z,55.68
2018-10-01T13:56:23.117Z,56.40
2018-10-01T13:58:51.986Z,53.58
2018-10-01T14:01:20.894Z,52.98
2018-10-01T14:03:49.529Z,50.99
2018-10-01T14:06:18.146Z,51.99
2018-10-01T14:08:46.737Z,51.63
2018-10-01T14:11:15.254Z,51.26
2018-10-01T14:13:43.994Z,52.09
2018-10-01T14:16:12.324Z,50.77
2018-10-01T14:18:40.802Z,51.41
2018-10-01T14:21:09.877Z,52.45
2018-10-01T14:23:38.378Z,51.26
2018-10-01T14:26:07.655Z,51.44
2018-10-01T14:28:36.411Z,52.76
2018-10-01T14:31:06.071Z,53.00
2018-10-01T14:33:34.639Z,53.58
2018-10-01T14:36:03.243Z,53.08
2018-10-01T14:38:32.948Z,51.66
2018-10-01T14:41:02.326Z,53.38
2018-10-01T14:43:30.993Z,52.63
2018-10-01T14:46:01.202Z,54.45
2018-10-01T14:48:29.728Z,51.57
2018-10-01T14:50:58.309Z,50.63
2018-10-01T14:53:26.929Z,48.78
2018-10-01T14:56:02.044Z,50.06
2018-10-01T14:58:30.603Z,49.46
2018-10-01T15:00:59.275Z,50.35
2018-10-01T15:03:27.708Z,48.54
2018-10-01T15:05:56.359Z,50.12
2018-10-01T15:08:24.932Z,49.34
2018-10-01T15:10:53.473Z,49.74
2018-10-01T15:13:21.882Z,48.90
2018-10-01T15:15:50.607Z,49.04
2018-10-01T15:18:19.566Z,49.60
2018-10-01T15:20:48.072Z,49.81
2018-10-01T15:23:16.499Z,49.46
2018-10-01T15:25:44.972Z,49.58
2018-10-01T15:28:13.459Z,48.94
2018-10-01T15:30:42.070Z,50.54
2018-10-01T15:33:10.486Z,51.45
2018-10-01T15:35:39.027Z,52.10
2018-10-01T15:38:07.685Z,52.76
2018-10-01T15:40:36.383Z,53.94
2018-10-01T15:43:04.926Z,53.56
2018-10-01T15:45:33.554Z,53.67
2018-10-01T15:48:02.321Z,53.89
2018-10-01T15:50:31.061Z,54.23
2018-10-01T15:53:00.032Z,55.01
2018-10-01T15:55:28.567Z,53.97
2018-10-01T15:57:57.207Z,54.72
2018-10-01T16:00:25.776Z,54.68
2018-10-01T16:02:54.396Z,54.94
2018-10-01T16:05:22.982Z,54.32
2018-10-01T16:07:51.544Z,54.95
2018-10-01T16:10:21.188Z,54.56
2018-10-01T16:12:49.821Z,54.68
2018-10-01T16:15:18.386Z,54.74
2018-10-01T16:17:46.965Z,54.62
2018-10-01T16:20:16.391Z,54.64
2018-10-01T16:22:45.072Z,54.62
2018-10-01T16:25:14.402Z,56.37
2018-10-01T16:27:44.788Z,55.52
2018-10-01T16:30:13.476Z,55.23
2018-10-01T16:32:42.623Z,55.82
2018-10-01T16:35:11.460Z,55.24
2018-10-01T16:37:40.917Z,54.98
2018-10-01T16:40:09.561Z,54.86
2018-10-01T16:42:39.123Z,55.15
2018-10-01T16:45:07.826Z,55.82
2018-10-01T16:47:36.532Z,56.56
2018-10-01T16:50:05.846Z,56.42
2018-10-01T16:52:34.512Z,56.13
2018-10-01T16:55:03.184Z,56.66
2018-10-01T16:57:32.235Z,56.70
2018-10-01T17:00:00.797Z,56.44
2018-10-01T17:02:29.490Z,56.37
2018-10-01T17:04:58.186Z,56.44
2018-10-01T17:07:26.825Z,56.20
2018-10-01T17:09:56.681Z,55.85
2018-10-01T17:12:25.837Z,56.31
2018-10-01T17:14:54.528Z,55.69
2018-10-01T17:17:23.181Z,56.20
2018-10-01T17:19:52.638Z,56.55
2018-10-01T17:22:21.386Z,56.46
2018-10-01T17:24:50.066Z,56.88
2018-10-01T17:27:20.043Z,57.29
2018-10-01T17:29:49.062Z,58.28
2018-10-01T17:32:18.577Z,58.04
2018-10-01T17:34:48.121Z,58.42
2018-10-01T17:37:16.771Z,58.21
2018-10-01T17:39:45.321Z,58.70
2018-10-01T17:42:13.936Z,59.05
2018-10-01T17:44:42.581Z,57.60
2018-10-01T17:47:11.326Z,57.53
2018-10-01T17:49:40.072Z,57.46
2018-10-01T17:52:08.926Z,57.88
2018-10-01T17:54:37.630Z,57.88
2018-10-01T17:57:06.376Z,56.72
2018-10-01T17:59:35.177Z,57.92
2018-10-01T18:02:04.492Z,58.19
2018-10-01T18:04:33.092Z,58.13
2018-10-01T18:07:01.654Z,58.32
2018-10-01T18:09:30.247Z,58.55
2018-10-01T18:11:58.948Z,58.24
2018-10-01T18:14:27.466Z,60.17
2018-10-01T18:16:56.067Z,60.40
2018-10-01T18:19:24.791Z,58.46
2018-10-01T18:21:53.514Z,58.68
2018-10-01T18:24:28.517Z,58.92
2018-10-01T18:26:57.184Z,60.13
2018-10-01T18:29:27.590Z,59.68
2018-10-01T18:31:56.359Z,61.30
2018-10-01T18:34:25.267Z,60.09
2018-10-01T18:36:54.008Z,61.03
2018-10-01T18:39:25.292Z,60.72
2018-10-01T18:41:54.166Z,61.70
2018-10-01T18:44:22.967Z,60.87
2018-10-01T18:46:51.745Z,59.76
2018-10-01T18:49:20.576Z,59.99
2018-10-01T18:51:49.430Z,61.71
2018-10-01T18:54:18.649Z,59.48
2018-10-01T18:56:47.691Z,57.95
2018-10-01T18:59:16.918Z,59.97
2018-10-01T19:01:45.550Z,59.70
2018-10-01T19:04:14.288Z,59.64
2018-10-01T19:06:43.437Z,58.75
2018-10-01T19:09:13.186Z,60.47
2018-10-01T19:11:42.897Z,59.87
2018-10-01T19:14:11.824Z,60.42
2018-10-01T19:16:40.575Z,60.67
2018-10-01T19:19:09.196Z,61.63
2018-10-01T19:21:37.827Z,62.63
2018-10-01T19:24:06.519Z,62.86
2018-10-01T19:26:35.567Z,67.57
2018-10-01T19:29:04.225Z,63.60
2018-10-01T19:31:33.047Z,62.28
2018-10-01T19:34:01.656Z,62.48
2018-10-01T19:36:30.267Z,63.31
2018-10-01T19:38:59.051Z,63.76
2018-10-01T19:41:27.754Z,63.76
2018-10-01T19:43:56.445Z,62.60
2018-10-01T19:46:25.792Z,64.10
2018-10-01T19:48:54.452Z,63.59
2018-10-01T19:51:23.109Z,63.88
2018-10-01T19:53:51.851Z,63.95
2018-10-01T19:56:21.625Z,62.95
2018-10-01T19:58:50.375Z,62.73
2018-10-01T20:01:19.592Z,64.37
2018-10-01T20:03:48.792Z,63.87
2018-10-01T20:06:17.601Z,63.08
2018-10-01T20:08:46.123Z,62.13
2018-10-01T20:11:14.840Z,62.47
2018-10-01T20:13:43.560Z,63.30
2018-10-01T20:16:12.110Z,63.96
2018-10-01T20:18:40.828Z,62.37
2018-10-01T20:21:09.537Z,63.38
2018-10-01T20:23:38.117Z,64.25
2018-10-01T20:26:07.537Z,64.01
2018-10-01T20:28:36.478Z,64.41
2018-10-01T20:31:04.875Z,64.46
2018-10-01T20:33:33.865Z,63.52
2018-10-01T20:36:02.761Z,64.05
2018-10-01T20:38:32.201Z,65.86
2018-10-01T20:41:00.908Z,64.18
2018-10-01T20:43:29.548Z,62.83
2018-10-01T20:45:58.268Z,63.03
2018-10-01T20:48:27.065Z,62.22
2018-10-01T20:50:55.725Z,63.76
2018-10-01T20:53:24.680Z,64.61
2018-10-01T20:55:53.535Z,65.59
2018-10-01T20:58:22.955Z,65.73
2018-10-01T21:00:51.826Z,64.91
2018-10-01T21:03:20.481Z,65.08
2018-10-01T21:05:49.179Z,65.23
2018-10-01T21:08:18.904Z,64.06
2018-10-01T21:10:47.547Z,65.47
2018-10-01T21:13:16.177Z,66.64
2018-10-01T21:15:45.470Z,66.22
2018-10-01T21:18:14.869Z,65.46
2018-10-01T21:20:44.166Z,65.44
2018-10-01T21:23:13.341Z,65.08
2018-10-01T21:25:41.902Z,64.55
2018-10-01T21:28:10.678Z,65.50
2018-10-01T21:30:39.372Z,64.73
2018-10-01T21:33:08.187Z,64.85
2018-10-01T21:35:36.844Z,65.86
2018-10-01T21:38:05.479Z,65.29
2018-10-01T21:40:34.182Z,65.28
2018-10-01T21:43:03.455Z,64.99
2018-10-01T21:45:32.112Z,65.40
2018-10-01T21:48:00.850Z,67.14
2018-10-01T21:50:29.570Z,67.00
2018-10-01T21:52:58.165Z,65.34
2018-10-01T21:55:26.790Z,64.81
2018-10-01T21:57:55.425Z,64.81
2018-10-01T22:00:24.821Z,66.60
2018-10-01T22:02:53.489Z,65.50
2018-10-01T22:05:22.072Z,65.23
2018-10-01T22:07:52.215Z,66.34
2018-10-01T22:10:20.877Z,65.22
2018-10-01T22:12:49.536Z,65.74
2018-10-01T22:15:19.005Z,65.66
2018-10-01T22:17:47.655Z,64.76
2018-10-01T22:20:16.241Z,64.91
2018-10-01T22:22:45.094Z,67.08
2018-10-01T22:25:13.741Z,68.22
2018-10-01T22:27:42.342Z,65.81
2018-10-01T22:30:10.926Z,65.40
2018-10-01T22:32:39.486Z,65.02
2018-10-01T22:35:08.730Z,65.48
2018-10-01T22:37:37.339Z,66.32
2018-10-01T22:40:06.489Z,64.88
2018-10-01T22:42:35.162Z,65.63
2018-10-01T22:45:04.321Z,66.50
2018-10-01T22:47:32.918Z,66.84
2018-10-01T22:50:01.541Z,66.85
2018-10-01T22:52:30.205Z,66.20
2018-10-01T22:54:58.775Z,67.49
2018-10-01T22:57:27.339Z,66.88
2018-10-01T22:59:55.979Z,68.71
2018-10-01T23:02:24.605Z,67.18
2018-10-01T23:04:54.205Z,64.87
2018-10-01T23:07:23.254Z,64.74
2018-10-01T23:09:52.544Z,65.73
2018-10-01T23:12:21.225Z,64.51
2018-10-01T23:14:49.723Z,66.29
2018-10-01T23:17:19.125Z,66.08
2018-10-01T23:19:48.275Z,66.05
2018-10-01T23:22:17.489Z,66.76
2018-10-01T23:24:46.111Z,66.05
2018-10-01T23:27:14.935Z,65.82
2018-10-01T23:29:43.518Z,64.49
2018-10-01T23:32:12.195Z,65.14
2018-10-01T23:34:40.824Z,68.69
2018-10-01T23:37:09.524Z,67.93
2018-10-01T23:39:38.115Z,64.32
2018-10-01T23:42:06.740Z,65.88
2018-10-01T23:44:35.885Z,65.60
2018-10-01T23:47:05.244Z,64.75
2018-10-01T23:49:33.890Z,64.53
2018-10-01T23:52:02.539Z,66.36
2018-10-01T23:54:31.140Z,65.48
2018-10-01T23:56:59.738Z,65.50
2018-10-01T23:59:28.499Z,66.13
